Time;durP1;ratioP1;P1;durP2;ratioP2;P2;SDS_P1;SDS_P2;PMS_P1;PMS_P2;Temp;Humidity;BMP_temperature;BMP_pressure;BME280_temperature;BME280_humidity;BME280_pressure;Samples;Min_cycle;Max_cycle;Signal;HPM_P1;HPM_P2
2021/12/08 00:00:30;;;;;;;157.35;12.55;;;3.30;98.40;;;;;;5075084;28;20491;-62
2021/12/08 00:02:58;;;;;;;206.07;15.05;;;3.30;98.40;;;;;;5075448;28;20352;-63
2021/12/08 00:05:24;;;;;;;191.05;15.75;;;3.30;98.30;;;;;;5075006;28;20028;-64
2021/12/08 00:07:50;;;;;;;189.95;13.52;;;3.20;98.20;;;;;;5075314;28;20367;-63
2021/12/08 00:13:05;;;;;;;85.38;9.50;;;3.20;98.30;;;;;;5075053;28;20052;-62
2021/12/08 00:15:39;;;;;;;108.43;11.05;;;3.30;98.30;;;;;;5074789;28;20051;-63
2021/12/08 00:18:08;;;;;;;133.70;12.55;;;3.20;98.20;;;;;;5074726;28;20506;-63
2021/12/08 00:20:35;;;;;;;121.10;10.52;;;3.20;98.30;;;;;;5074808;28;20060;-63
2021/12/08 00:23:02;;;;;;;208.45;15.90;;;3.20;98.30;;;;;;5074697;28;20024;-65
2021/12/08 00:25:29;;;;;;;91.63;10.02;;;3.20;98.40;;;;;;5074739;28;20052;-64
2021/12/08 00:27:55;;;;;;;168.32;16.10;;;3.20;98.30;;;;;;5074816;28;20106;-63
2021/12/08 00:30:22;;;;;;;113.95;11.65;;;3.20;98.30;;;;;;5074622;28;20112;-62
2021/12/08 00:32:50;;;;;;;128.93;12.18;;;3.20;98.20;;;;;;5074277;28;20107;-63
2021/12/08 00:35:16;;;;;;;129.60;12.88;;;3.20;98.20;;;;;;5074610;28;20047;-63
2021/12/08 00:37:41;;;;;;;100.13;10.73;;;3.20;98.20;;;;;;5074493;28;20021;-63
2021/12/08 00:40:10;;;;;;;30.48;6.68;;;3.20;98.20;;;;;;5074223;28;20533;-64
2021/12/08 00:42:36;;;;;;;64.78;8.05;;;3.20;98.30;;;;;;5074343;28;20028;-63
2021/12/08 00:45:04;;;;;;;70.18;7.70;;;3.20;98.40;;;;;;5074390;28;20412;-65
2021/12/08 00:47:30;;;;;;;143.15;11.02;;;3.20;98.50;;;;;;5074252;28;20102;-63
2021/12/08 00:49:55;;;;;;;83.15;9.20;;;3.30;98.50;;;;;;5074133;28;20071;-63
2021/12/08 00:52:24;;;;;;;43.15;7.47;;;3.20;98.50;;;;;;5074181;28;20025;-63
2021/12/08 00:54:50;;;;;;;82.63;9.15;;;3.30;98.50;;;;;;5073958;28;20020;-64
2021/12/08 00:57:16;;;;;;;54.88;6.88;;;3.30;98.50;;;;;;5074096;28;20066;-63
2021/12/08 00:59:41;;;;;;;30.17;5.70;;;3.30;98.40;;;;;;5074030;28;20020;-63
2021/12/08 01:02:07;;;;;;;61.90;7.38;;;3.30;98.40;;;;;;5073694;28;20040;-63
2021/12/08 01:04:35;;;;;;;52.08;7.63;;;3.30;98.40;;;;;;5074037;28;20024;-63
2021/12/08 01:07:02;;;;;;;76.20;8.30;;;3.30;98.30;;;;;;5074057;28;20133;-63
2021/12/08 01:09:28;;;;;;;73.65;8.65;;;3.30;98.20;;;;;;5073883;28;20033;-63
2021/12/08 01:11:57;;;;;;;72.22;8.05;;;3.20;98.10;;;;;;5073900;28;20056;-63
2021/12/08 01:14:22;;;;;;;14.88;4.80;;;3.20;98.20;;;;;;5073930;28;20056;-63
2021/12/08 01:16:48;;;;;;;39.22;6.10;;;3.20;98.30;;;;;;5073890;28;20052;-63
2021/12/08 01:19:14;;;;;;;26.20;5.35;;;3.20;98.30;;;;;;5073946;28;20028;-63
2021/12/08 01:21:39;;;;;;;35.88;5.82;;;3.20;98.40;;;;;;5073734;28;20025;-63
2021/12/08 01:24:05;;;;;;;51.53;6.55;;;3.30;98.40;;;;;;5074062;28;20028;-63
2021/12/08 01:26:31;;;;;;;44.45;6.57;;;3.30;98.40;;;;;;5073416;28;20032;-63
2021/12/08 01:28:57;;;;;;;27.88;5.57;;;3.30;98.40;;;;;;5073503;28;20127;-63
2021/12/08 01:31:24;;;;;;;12.32;4.40;;;3.20;98.40;;;;;;5073366;28;20077;-63
2021/12/08 01:33:51;;;;;;;13.10;4.35;;;3.30;98.40;;;;;;5073209;28;20024;-63
2021/12/08 01:36:17;;;;;;;10.48;4.10;;;3.30;98.40;;;;;;5073316;28;20024;-63
2021/12/08 01:38:43;;;;;;;11.88;4.25;;;3.30;98.50;;;;;;5073271;28;20052;-63
2021/12/08 01:41:09;;;;;;;11.02;4.50;;;3.30;98.50;;;;;;5073204;28;20024;-62
2021/12/08 01:45:56;;;;;;;10.75;4.05;;;3.30;98.40;;;;;;5073195;28;20025;-63
2021/12/08 01:46:28;;;;;;;9.43;3.78;;;3.30;98.40;;;;;;5072980;28;20116;-63
2021/12/08 01:48:54;;;;;;;8.82;3.65;;;3.30;98.40;;;;;;5073027;28;20115;-62
2021/12/08 01:51:20;;;;;;;11.07;3.67;;;3.30;98.40;;;;;;5073127;28;20052;-62
2021/12/08 01:53:49;;;;;;;8.80;3.70;;;3.30;98.40;;;;;;5072814;28;20051;-62
2021/12/08 01:56:18;;;;;;;8.05;3.58;;;3.30;98.30;;;;;;5072934;28;20021;-62
2021/12/08 01:58:44;;;;;;;8.60;3.55;;;3.30;98.40;;;;;;5072898;28;20408;-63
2021/12/08 02:01:13;;;;;;;8.73;3.35;;;3.30;98.30;;;;;;5072834;28;20059;-62
2021/12/08 02:03:39;;;;;;;8.63;3.30;;;3.30;98.10;;;;;;5072688;28;20024;-63
2021/12/08 02:06:07;;;;;;;8.50;3.22;;;3.30;98.30;;;;;;5072775;28;20052;-63
2021/12/08 02:08:34;;;;;;;8.70;3.22;;;3.30;98.30;;;;;;5072607;28;20021;-63
2021/12/08 02:11:02;;;;;;;7.43;3.40;;;3.30;98.30;;;;;;5072630;28;20021;-63
2021/12/08 02:13:31;;;;;;;8.77;3.70;;;3.30;98.10;;;;;;5071729;28;20044;-63
2021/12/08 02:16:00;;;;;;;7.82;3.00;;;3.30;98.00;;;;;;5072613;28;20183;-63
2021/12/08 02:18:26;;;;;;;7.18;3.53;;;3.30;98.00;;;;;;5072359;28;20081;-61
2021/12/08 02:20:52;;;;;;;8.30;3.55;;;3.30;98.10;;;;;;5072449;28;20048;-62
2021/12/08 02:23:19;;;;;;;8.88;3.50;;;3.30;98.10;;;;;;5072629;28;20529;-63
2021/12/08 02:25:45;;;;;;;8.93;3.45;;;3.30;98.20;;;;;;5072573;28;20398;-63
2021/12/08 02:28:11;;;;;;;7.22;3.45;;;3.30;98.50;;;;;;5072812;28;20036;-63
2021/12/08 02:30:46;;;;;;;8.57;3.42;;;3.40;98.30;;;;;;5072436;28;20036;-63
2021/12/08 02:47:28;;;;;;;10.32;3.90;;;3.40;98.00;;;;;;5071814;28;20035;-63
2021/12/08 02:49:54;;;;;;;10.50;4.00;;;3.30;97.90;;;;;;5072372;28;20072;-63
2021/12/08 02:52:20;;;;;;;9.07;3.60;;;3.30;97.90;;;;;;5072112;28;20033;-63
2021/12/08 02:54:48;;;;;;;9.02;3.80;;;3.30;97.90;;;;;;5070647;28;20032;-63
2021/12/08 02:57:16;;;;;;;12.00;3.83;;;3.30;98.00;;;;;;5071931;28;20033;-63
2021/12/08 02:59:44;;;;;;;11.38;3.92;;;3.30;98.00;;;;;;5071888;28;20024;-62
2021/12/08 03:02:10;;;;;;;12.00;4.07;;;3.30;98.00;;;;;;5071856;28;20103;-62
2021/12/08 03:04:36;;;;;;;10.57;3.88;;;3.20;98.10;;;;;;5071971;28;20102;-65
2021/12/08 03:07:04;;;;;;;12.68;4.05;;;3.30;98.00;;;;;;5071918;28;20035;-63
2021/12/08 03:09:30;;;;;;;25.10;4.10;;;3.20;98.00;;;;;;5071953;28;20039;-63
2021/12/08 03:11:58;;;;;;;53.78;6.97;;;3.20;98.10;;;;;;5070441;28;20050;-64
2021/12/08 03:14:25;;;;;;;25.85;5.35;;;3.20;98.00;;;;;;5071632;28;20506;-63
2021/12/08 03:16:56;;;;;;;24.40;5.18;;;3.20;98.10;;;;;;5071619;28;20062;-63
2021/12/08 03:19:23;;;;;;;24.15;4.88;;;3.20;98.10;;;;;;5071495;28;20468;-63
2021/12/08 03:21:50;;;;;;;109.22;8.88;;;3.20;98.10;;;;;;5071481;28;20024;-63
2021/12/08 03:27:22;;;;;;;53.03;7.00;;;3.20;98.20;;;;;;5071308;28;20036;-62
2021/12/08 03:30:13;;;;;;;98.53;8.10;;;3.20;98.30;;;;;;5069070;28;20040;-62
2021/12/08 03:32:38;;;;;;;45.30;5.88;;;3.20;98.40;;;;;;5071219;28;20025;-63
2021/12/08 03:35:13;;;;;;;109.45;8.80;;;3.20;98.40;;;;;;5071708;28;20028;-63
2021/12/08 03:37:43;;;;;;;80.15;7.70;;;3.20;98.70;;;;;;5071291;28;20052;-63
2021/12/08 03:40:16;;;;;;;116.28;8.73;;;3.20;98.50;;;;;;5071318;28;20021;-63
2021/12/08 03:42:42;;;;;;;;;;;3.20;98.50;;;;;;5071651;28;20021;-63
2021/12/08 03:45:34;;;;;;;88.15;8.40;;;3.20;98.40;;;;;;5071066;28;19905;-62
2021/12/08 03:48:08;;;;;;;65.43;7.20;;;3.20;98.50;;;;;;5071301;28;20391;-62
2021/12/08 03:50:40;;;;;;;40.80;5.60;;;3.20;98.40;;;;;;5071147;28;20464;-63
2021/12/08 03:53:08;;;;;;;42.90;5.38;;;3.30;98.30;;;;;;5071184;28;20034;-62
2021/12/08 03:55:33;;;;;;;57.75;6.88;;;3.20;98.40;;;;;;5071107;28;20025;-63
2021/12/08 03:57:59;;;;;;;60.05;6.15;;;3.20;98.50;;;;;;5071120;28;20032;-63
2021/12/08 04:00:29;;;;;;;78.53;7.18;;;3.20;98.80;;;;;;5070989;28;20021;-62
2021/12/08 04:02:59;;;;;;;44.17;6.93;;;3.20;98.70;;;;;;5071057;28;20426;-63
2021/12/08 04:06:02;;;;;;;97.28;7.95;;;3.30;98.80;;;;;;5070990;28;20526;-63
2021/12/08 04:08:26;;;;;;;33.20;4.45;;;3.30;98.90;;;;;;5068954;28;20041;-62
2021/12/08 04:10:52;;;;;;;37.72;5.00;;;3.30;98.90;;;;;;5071025;28;20025;-63
2021/12/08 04:13:23;;;;;;;23.55;3.75;;;3.40;99.00;;;;;;5070591;28;20574;-63
2021/12/08 04:15:49;;;;;;;70.93;7.15;;;3.40;99.10;;;;;;5069713;28;20054;-62
2021/12/08 04:18:15;;;;;;;41.42;5.15;;;3.50;99.10;;;;;;5070808;28;20392;-62
2021/12/08 04:20:49;;;;;;;36.90;4.30;;;3.50;99.00;;;;;;5070731;28;20432;-62
2021/12/08 04:23:17;;;;;;;101.22;7.38;;;3.50;98.90;;;;;;5070848;28;20160;-63
2021/12/08 04:25:46;;;;;;;100.40;6.57;;;3.60;98.80;;;;;;5070774;28;20064;-63
2021/12/08 04:28:18;;;;;;;86.57;7.60;;;3.50;98.70;;;;;;5070760;28;20028;-63
2021/12/08 04:30:50;;;;;;;116.88;9.02;;;3.50;98.70;;;;;;5070653;28;20037;-62
2021/12/08 04:33:16;;;;;;;148.55;10.75;;;3.60;98.70;;;;;;5070652;28;20067;-62
2021/12/08 04:35:46;;;;;;;67.20;7.38;;;3.60;98.60;;;;;;5070632;28;20510;-62
2021/12/08 04:38:20;;;;;;;223.45;12.88;;;3.50;98.60;;;;;;5073641;28;20047;-63
2021/12/08 04:43:29;;;;;;;66.82;7.07;;;3.60;98.60;;;;;;5074274;28;20090;-63
2021/12/08 04:46:14;;;;;;;125.53;11.05;;;3.60;98.60;;;;;;5074162;28;20028;-62
2021/12/08 04:51:46;;;;;;;106.68;9.48;;;3.60;98.50;;;;;;5074152;28;20032;-64
2021/12/08 05:07:55;;;;;;;154.57;13.10;;;3.50;98.50;;;;;;5073915;28;20035;-63
2021/12/08 05:10:29;;;;;;;166.27;13.73;;;3.50;98.40;;;;;;5073833;28;20527;-64
2021/12/08 05:12:55;;;;;;;149.57;11.57;;;3.50;98.40;;;;;;5073257;28;20028;-62
2021/12/08 05:15:24;;;;;;;119.18;11.55;;;3.50;98.50;;;;;;5073476;28;20112;-63
2021/12/08 05:18:09;;;;;;;154.23;12.20;;;3.50;98.50;;;;;;5073173;28;20020;-63
2021/12/08 05:20:39;;;;;;;139.77;12.30;;;3.50;98.60;;;;;;5073106;28;20480;-63
2021/12/08 05:23:50;;;;;;;72.72;8.05;;;3.50;98.60;;;;;;5073430;28;20423;-63
2021/12/08 05:26:32;;;;;;;121.03;10.63;;;3.50;98.50;;;;;;5031397;28;20104;-64
2021/12/08 05:29:05;;;;;;;46.73;7.33;;;3.50;98.70;;;;;;5072328;28;20476;-63
2021/12/08 05:31:32;;;;;;;111.82;10.80;;;3.50;98.80;;;;;;5073218;28;20496;-62
2021/12/08 05:33:58;;;;;;;90.35;10.85;;;3.50;98.70;;;;;;5073201;28;20055;-63
2021/12/08 05:36:24;;;;;;;83.43;8.55;;;3.60;98.70;;;;;;5073152;28;20017;-63
2021/12/08 05:38:52;;;;;;;186.98;14.50;;;3.60;98.70;;;;;;5073106;28;20048;-63
2021/12/08 05:41:23;;;;;;;193.57;13.60;;;3.60;98.70;;;;;;5073083;28;20491;-63
2021/12/08 05:43:49;;;;;;;170.55;13.68;;;3.60;98.80;;;;;;5073164;28;20084;-63
2021/12/08 05:46:18;;;;;;;106.32;10.25;;;3.60;98.90;;;;;;5072999;28;20033;-63
2021/12/08 05:48:49;;;;;;;130.45;11.85;;;3.60;99.00;;;;;;5072007;28;20094;-64
2021/12/08 05:51:22;;;;;;;181.70;15.23;;;3.60;99.00;;;;;;5072877;28;20017;-63
2021/12/08 05:53:49;;;;;;;;;;;3.70;99.00;;;;;;5073299;28;20134;-63
2021/12/08 05:56:16;;;;;;;72.82;10.43;;;3.70;98.80;;;;;;5073187;28;20370;-63
2021/12/08 05:58:42;;;;;;;46.28;7.88;;;3.70;99.00;;;;;;5072743;28;20021;-63
2021/12/08 06:01:17;;;;;;;133.73;12.45;;;3.70;99.00;;;;;;5072734;28;20020;-64
2021/12/08 06:03:45;;;;;;;95.60;10.43;;;3.80;99.10;;;;;;5072845;28;20090;-63
2021/12/08 06:06:12;;;;;;;148.35;12.27;;;3.80;99.10;;;;;;5072550;28;20511;-64
2021/12/08 06:08:39;;;;;;;154.50;14.35;;;3.80;99.10;;;;;;5072457;28;20033;-63
2021/12/08 06:11:08;;;;;;;71.13;11.73;;;3.80;99.00;;;;;;5072591;28;20021;-63
2021/12/08 06:13:35;;;;;;;105.47;12.85;;;3.90;99.10;;;;;;5072446;28;20032;-64
2021/12/08 06:16:03;;;;;;;180.25;15.95;;;3.90;99.00;;;;;;5072420;28;20103;-63
2021/12/08 06:18:36;;;;;;;162.02;14.75;;;3.90;99.10;;;;;;5072381;28;20617;-64
2021/12/08 06:21:02;;;;;;;;;;;3.90;99.30;;;;;;5072741;28;20043;-63
2021/12/08 06:23:28;;;;;;;285.23;22.27;;;3.90;98.80;;;;;;5072279;28;19952;-63
2021/12/08 06:25:54;;;;;;;177.38;16.58;;;4.00;99.00;;;;;;5072012;28;20059;-63
2021/12/08 06:28:20;;;;;;;109.53;13.15;;;4.00;99.00;;;;;;5072345;28;20028;-65
2021/12/08 06:30:46;;;;;;;162.68;16.63;;;4.00;99.00;;;;;;5072363;28;20032;-63
2021/12/08 06:33:14;;;;;;;147.70;14.90;;;4.00;99.00;;;;;;5072133;28;20029;-64
2021/12/08 06:35:47;;;;;;;193.25;17.40;;;4.00;99.00;;;;;;5072134;28;20032;-64
2021/12/08 06:38:15;;;;;;;282.92;22.52;;;4.10;99.00;;;;;;5070618;28;20475;-63
2021/12/08 06:40:58;;;;;;;174.77;16.08;;;4.10;99.00;;;;;;5071820;28;20071;-64
2021/12/08 06:43:29;;;;;;;108.18;12.80;;;4.10;99.10;;;;;;5071928;28;20025;-63
2021/12/08 06:45:59;;;;;;;259.23;19.42;;;4.10;99.10;;;;;;5071913;28;20025;-64
2021/12/08 06:48:28;;;;;;;238.93;17.25;;;4.10;99.00;;;;;;5071977;28;20029;-63
2021/12/08 06:51:00;;;;;;;199.50;17.88;;;4.20;99.00;;;;;;5072032;28;20048;-64
2021/12/08 06:53:26;;;;;;;291.48;21.27;;;4.20;99.00;;;;;;5071740;28;20083;-64
2021/12/08 06:56:31;;;;;;;287.38;18.90;;;4.20;98.90;;;;;;5070513;28;20513;-64
2021/12/08 06:59:00;;;;;;;242.05;19.10;;;4.20;98.80;;;;;;5054333;28;20041;-64
2021/12/08 07:01:48;;;;;;;199.63;16.95;;;4.20;98.90;;;;;;5071309;28;20100;-64
2021/12/08 07:04:32;;;;;;;258.38;18.58;;;4.20;98.90;;;;;;5071456;28;20126;-64
2021/12/08 07:07:01;;;;;;;;;;;4.20;98.90;;;;;;5072174;28;20033;-64
2021/12/08 07:09:37;;;;;;;168.43;16.63;;;4.20;98.80;;;;;;5071557;28;19995;-64
2021/12/08 07:12:09;;;;;;;225.88;18.25;;;4.30;98.90;;;;;;5071650;28;20028;-63
2021/12/08 07:14:36;;;;;;;184.45;16.55;;;4.30;98.90;;;;;;5071435;28;20031;-64
2021/12/08 07:17:07;;;;;;;103.45;12.25;;;4.30;99.00;;;;;;5071460;28;20387;-64
2021/12/08 07:19:44;;;;;;;199.20;20.67;;;4.30;99.10;;;;;;5071297;28;20425;-64
2021/12/08 07:22:16;;;;;;;178.18;18.67;;;4.40;99.10;;;;;;5071516;28;20533;-64
2021/12/08 07:24:46;;;;;;;92.47;12.32;;;4.40;99.00;;;;;;5071472;28;20050;-63
2021/12/08 07:27:17;;;;;;;88.80;13.13;;;4.40;99.10;;;;;;5070066;28;20037;-63
2021/12/08 07:29:44;;;;;;;181.82;18.17;;;4.50;98.90;;;;;;5071539;28;20036;-64
2021/12/08 07:32:22;;;;;;;232.90;19.83;;;4.50;98.80;;;;;;5071276;28;20044;-64
2021/12/08 07:34:51;;;;;;;283.33;22.70;;;4.50;98.70;;;;;;5071378;28;20029;-65
2021/12/08 07:37:25;;;;;;;172.77;14.07;;;4.50;98.80;;;;;;5071402;28;20155;-64
2021/12/08 07:40:32;;;;;;;279.85;21.42;;;4.50;98.90;;;;;;5071291;28;20091;-65
2021/12/08 07:43:08;;;;;;;77.35;13.35;;;4.50;98.70;;;;;;5060912;28;20060;-63
2021/12/08 07:45:47;;;;;;;108.80;14.98;;;4.50;98.80;;;;;;5071044;28;20463;-63
2021/12/08 07:48:19;;;;;;;97.07;13.88;;;4.60;98.80;;;;;;5071160;28;20035;-64
2021/12/08 07:50:55;;;;;;;161.68;18.10;;;4.60;98.90;;;;;;5071209;28;20078;-65
2021/12/08 07:53:24;;;;;;;151.60;15.73;;;4.60;98.90;;;;;;5071083;28;20434;-64
2021/12/08 07:55:54;;;;;;;163.48;17.75;;;4.60;98.90;;;;;;5071113;28;20069;-64
2021/12/08 07:58:20;;;;;;;96.65;15.70;;;4.70;98.90;;;;;;5071010;28;20045;-64
2021/12/08 08:01:22;;;;;;;77.63;16.10;;;4.70;98.90;;;;;;5070793;28;20025;-65
2021/12/08 08:03:49;;;;;;;158.60;18.98;;;4.70;98.80;;;;;;5028481;28;20113;-64
2021/12/08 08:06:35;;;;;;;74.10;15.20;;;4.80;99.10;;;;;;5070945;28;20028;-63
2021/12/08 08:09:03;;;;;;;117.35;18.27;;;4.80;99.20;;;;;;5071016;28;20032;-63
2021/12/08 08:11:34;;;;;;;78.50;16.63;;;4.80;99.20;;;;;;5070907;28;20075;-64
2021/12/08 08:14:01;;;;;;;64.97;18.70;;;4.90;99.30;;;;;;5074699;28;20403;-63
2021/12/08 08:16:33;;;;;;;99.95;18.33;;;4.90;99.00;;;;;;5074872;28;20036;-64
2021/12/08 08:19:07;;;;;;;63.57;17.57;;;5.00;99.10;;;;;;5074986;28;20027;-63
2021/12/08 08:21:39;;;;;;;66.13;17.45;;;5.00;99.10;;;;;;5074610;28;20048;-64
2021/12/08 08:24:06;;;;;;;74.63;18.35;;;5.00;99.20;;;;;;5074661;28;20025;-64
2021/12/08 08:26:32;;;;;;;47.00;17.73;;;5.10;99.20;;;;;;5074401;28;20043;-64
2021/12/08 08:28:59;;;;;;;45.83;20.50;;;5.20;99.30;;;;;;5074417;28;20332;-63
2021/12/08 08:31:30;;;;;;;49.33;23.63;;;5.20;99.10;;;;;;5074290;28;20024;-64
2021/12/08 08:33:56;;;;;;;54.85;25.65;;;5.20;98.70;;;;;;5074627;28;20052;-64
2021/12/08 08:36:28;;;;;;;56.40;28.45;;;5.30;98.50;;;;;;5074640;28;20025;-66
2021/12/08 08:39:09;;;;;;;53.13;28.98;;;5.30;98.30;;;;;;5072683;28;20021;-64
2021/12/08 08:42:08;;;;;;;57.75;29.75;;;5.30;98.30;;;;;;5061430;28;20017;-64
2021/12/08 08:44:37;;;;;;;51.47;28.30;;;5.30;98.30;;;;;;5051716;28;20033;-63
2021/12/08 08:47:07;;;;;;;56.05;29.63;;;5.30;98.30;;;;;;5074180;28;20039;-64
2021/12/08 08:49:35;;;;;;;53.35;29.75;;;5.30;98.00;;;;;;5074113;28;20028;-64
2021/12/08 08:52:25;;;;;;;56.22;29.83;;;5.30;98.00;;;;;;5074019;28;20078;-63
2021/12/08 08:54:53;;;;;;;50.75;28.75;;;5.30;98.00;;;;;;5066893;28;20041;-65
2021/12/08 08:57:29;;;;;;;46.95;27.63;;;5.30;98.00;;;;;;5073962;28;20024;-64
2021/12/08 09:00:05;;;;;;;54.42;29.85;;;5.30;98.20;;;;;;5074156;28;20348;-64
2021/12/08 09:02:37;;;;;;;52.75;29.75;;;5.30;98.20;;;;;;5073903;28;20508;-64
2021/12/08 09:05:17;;;;;;;55.70;30.42;;;5.30;98.10;;;;;;5074183;28;20059;-64
2021/12/08 09:07:46;;;;;;;55.72;31.02;;;5.30;98.00;;;;;;5073804;28;20526;-64
2021/12/08 09:10:24;;;;;;;59.25;32.50;;;5.40;97.90;;;;;;5073910;28;20365;-64
2021/12/08 09:12:58;;;;;;;57.20;30.25;;;5.40;97.60;;;;;;5073690;28;20045;-62
2021/12/08 09:15:31;;;;;;;51.85;29.30;;;5.40;97.70;;;;;;5073560;28;20104;-63
2021/12/08 09:18:08;;;;;;;55.83;32.25;;;5.40;98.00;;;;;;5073506;28;20028;-63
2021/12/08 09:20:44;;;;;;;54.45;30.15;;;5.40;97.80;;;;;;5073690;28;20027;-63
2021/12/08 09:23:24;;;;;;;53.83;30.63;;;5.40;98.00;;;;;;5073775;28;20027;-65
2021/12/08 09:26:06;;;;;;;49.10;27.85;;;5.40;97.80;;;;;;5073613;28;20029;-64
2021/12/08 09:28:35;;;;;;;54.70;30.97;;;5.50;98.00;;;;;;5073614;28;20025;-63
2021/12/08 09:31:06;;;;;;;57.03;32.50;;;5.50;97.40;;;;;;5073280;28;20124;-63
2021/12/08 09:33:39;;;;;;;52.53;30.48;;;5.50;97.00;;;;;;5073070;28;20027;-64
2021/12/08 09:36:12;;;;;;;50.85;29.35;;;5.40;97.00;;;;;;5073415;28;20024;-63
2021/12/08 09:38:40;;;;;;;50.53;29.48;;;5.40;97.30;;;;;;5073043;28;20028;-63
2021/12/08 09:41:13;;;;;;;56.22;30.38;;;5.40;97.30;;;;;;5073146;28;20426;-64
2021/12/08 09:43:44;;;;;;;55.90;30.10;;;5.50;97.10;;;;;;5072982;28;20058;-65
2021/12/08 09:46:16;;;;;;;53.40;31.60;;;5.40;97.00;;;;;;5072408;28;20030;-63
2021/12/08 09:48:44;;;;;;;51.13;27.83;;;5.50;96.80;;;;;;5069647;28;20028;-64
2021/12/08 09:51:10;;;;;;;47.65;27.60;;;5.40;97.10;;;;;;5063466;28;20284;-65
2021/12/08 09:53:37;;;;;;;47.85;27.10;;;5.40;97.60;;;;;;5071254;28;20063;-64
2021/12/08 09:56:04;;;;;;;51.95;28.85;;;5.40;97.10;;;;;;5068050;28;20048;-64
2021/12/08 09:58:29;;;;;;;46.17;26.42;;;5.40;97.10;;;;;;5056000;28;20025;-62
2021/12/08 10:00:59;;;;;;;47.03;26.33;;;5.40;97.20;;;;;;5064095;28;20426;-64
2021/12/08 10:03:26;;;;;;;48.00;26.88;;;5.40;97.20;;;;;;5072730;28;20052;-63
2021/12/08 10:05:55;;;;;;;48.88;26.90;;;5.40;97.10;;;;;;5070476;28;20045;-64
2021/12/08 10:08:21;;;;;;;49.58;26.60;;;5.40;97.00;;;;;;5073063;28;20111;-64
2021/12/08 10:10:48;;;;;;;45.67;25.58;;;5.40;97.00;;;;;;5072245;28;20060;-64
2021/12/08 10:13:15;;;;;;;46.15;26.77;;;5.40;97.20;;;;;;5072574;28;20037;-64
2021/12/08 10:15:41;;;;;;;49.50;28.58;;;5.40;96.90;;;;;;5070575;28;20020;-65
2021/12/08 10:18:09;;;;;;;46.00;24.70;;;5.40;96.90;;;;;;5058246;28;20083;-64
2021/12/08 10:20:50;;;;;;;50.10;26.38;;;5.40;97.20;;;;;;5055062;28;20048;-62
2021/12/08 10:23:23;;;;;;;43.38;24.50;;;5.40;97.10;;;;;;5060615;28;20023;-64
2021/12/08 10:26:03;;;;;;;50.10;26.05;;;5.40;97.20;;;;;;5065397;28;20040;-63
2021/12/08 10:28:33;;;;;;;50.28;25.50;;;5.40;97.20;;;;;;5052755;28;20021;-62
2021/12/08 10:31:13;;;;;;;46.42;24.55;;;5.40;97.10;;;;;;5055196;28;20476;-64
2021/12/08 10:34:01;;;;;;;49.05;25.42;;;5.50;97.10;;;;;;5071357;28;20861;-64
2021/12/08 10:36:45;;;;;;;47.33;24.08;;;5.50;97.10;;;;;;5058512;28;20171;-66
2021/12/08 10:39:22;;;;;;;45.03;24.52;;;5.50;97.10;;;;;;5072031;28;20473;-63
2021/12/08 10:41:54;;;;;;;44.40;23.40;;;5.50;97.10;;;;;;5071102;28;20055;-63
2021/12/08 10:47:30;;;;;;;49.80;25.65;;;5.50;97.00;;;;;;5062565;28;20371;-64
2021/12/08 10:55:57;;;;;;;49.65;25.17;;;5.50;96.80;;;;;;5057546;28;20032;-63
2021/12/08 10:58:27;;;;;;;44.47;23.38;;;5.50;96.90;;;;;;5051763;28;20109;-63
2021/12/08 11:00:55;;;;;;;47.80;23.88;;;5.50;97.20;;;;;;5051908;28;20029;-64
2021/12/08 11:03:21;;;;;;;51.13;24.15;;;5.50;97.20;;;;;;5052103;28;20104;-65
2021/12/08 11:06:01;;;;;;;47.97;24.60;;;5.50;97.20;;;;;;5058923;28;20420;-66
2021/12/08 11:08:36;;;;;;;46.88;24.20;;;5.50;97.00;;;;;;5070008;28;20035;-64
2021/12/08 11:11:06;;;;;;;44.50;23.95;;;5.60;97.20;;;;;;5072001;28;20028;-64
2021/12/08 11:13:38;;;;;;;44.30;24.00;;;5.60;97.10;;;;;;5068926;28;20113;-64
2021/12/08 11:16:31;;;;;;;47.33;24.90;;;5.60;97.00;;;;;;5065590;28;20028;-65
2021/12/08 11:19:02;;;;;;;40.75;21.77;;;5.60;96.70;;;;;;5060828;28;20044;-65
2021/12/08 11:21:37;;;;;;;43.67;23.20;;;5.60;96.90;;;;;;5068056;28;20064;-63
2021/12/08 11:24:10;;;;;;;40.90;21.20;;;5.60;96.80;;;;;;5069798;28;20028;-64
2021/12/08 11:26:38;;;;;;;;;;;5.60;97.00;;;;;;5071569;28;20032;-63
2021/12/08 11:29:08;;;;;;;43.70;22.95;;;5.60;96.90;;;;;;5068137;28;19912;-64
2021/12/08 11:31:34;;;;;;;42.53;21.73;;;5.60;96.90;;;;;;5070137;28;20033;-65
2021/12/08 11:34:03;;;;;;;37.97;21.00;;;5.60;96.90;;;;;;5071312;28;20025;-63
2021/12/08 11:36:32;;;;;;;42.38;22.10;;;5.60;97.00;;;;;;5069070;28;20023;-63
2021/12/08 11:39:03;;;;;;;44.67;22.98;;;5.70;96.80;;;;;;5069657;28;20025;-63
2021/12/08 11:41:35;;;;;;;46.00;24.50;;;5.60;96.70;;;;;;5071188;28;20375;-63
2021/12/08 11:44:05;;;;;;;46.10;23.27;;;5.60;96.80;;;;;;5071258;28;20024;-63
2021/12/08 11:46:37;;;;;;;49.05;25.52;;;5.60;96.90;;;;;;5064214;28;20037;-64
2021/12/08 11:49:06;;;;;;;53.30;27.57;;;5.60;96.80;;;;;;5066139;28;20467;-64
2021/12/08 11:51:56;;;;;;;51.50;26.30;;;5.60;96.40;;;;;;5056833;28;20250;-64
2021/12/08 11:54:36;;;;;;;50.30;25.00;;;5.60;96.50;;;;;;5066768;28;20106;-64
2021/12/08 11:57:21;;;;;;;50.38;24.88;;;5.60;96.50;;;;;;5071434;28;20012;-64
2021/12/08 11:59:55;;;;;;;48.40;24.88;;;5.60;96.50;;;;;;5075538;28;20388;-63
2021/12/08 12:02:27;;;;;;;48.10;24.42;;;5.60;96.60;;;;;;5074061;28;20100;-63
2021/12/08 12:04:53;;;;;;;52.75;25.65;;;5.50;96.60;;;;;;5074534;28;20036;-65
2021/12/08 12:07:19;;;;;;;52.92;27.17;;;5.50;96.50;;;;;;5074974;28;20381;-63
2021/12/08 12:09:46;;;;;;;54.42;25.42;;;5.50;96.50;;;;;;5074805;28;20116;-63
2021/12/08 12:12:13;;;;;;;56.38;26.88;;;5.50;96.50;;;;;;5070399;28;20436;-63
2021/12/08 12:14:40;;;;;;;65.25;27.85;;;5.50;96.40;;;;;;5059447;28;20476;-62
2021/12/08 12:17:06;;;;;;;50.20;24.50;;;5.50;96.60;;;;;;5070814;28;20029;-63
2021/12/08 12:19:50;;;;;;;52.60;24.98;;;5.50;96.80;;;;;;5074847;28;20099;-64
2021/12/08 12:22:27;;;;;;;62.30;24.65;;;5.50;96.80;;;;;;5074846;28;20081;-63
2021/12/08 12:24:56;;;;;;;53.72;24.75;;;5.50;96.90;;;;;;5064909;28;20060;-63
2021/12/08 12:28:01;;;;;;;113.47;27.42;;;5.50;97.00;;;;;;5065734;28;20419;-63
2021/12/08 12:30:40;;;;;;;136.20;27.45;;;5.50;97.00;;;;;;5017547;28;20540;-64
2021/12/08 12:33:17;;;;;;;78.18;25.15;;;5.50;97.00;;;;;;5054717;28;20025;-64
2021/12/08 12:35:51;;;;;;;150.60;27.10;;;5.50;96.90;;;;;;5061584;28;20025;-64
2021/12/08 12:38:30;;;;;;;132.18;28.20;;;5.50;96.90;;;;;;5074556;28;20017;-64
2021/12/08 12:40:57;;;;;;;170.65;29.67;;;5.50;96.80;;;;;;5062009;28;20487;-63
2021/12/08 12:43:26;;;;;;;65.38;23.88;;;5.40;96.90;;;;;;5064855;28;20033;-62
2021/12/08 12:46:12;;;;;;;232.57;32.05;;;5.40;97.00;;;;;;5054322;28;20021;-63
2021/12/08 12:48:39;;;;;;;151.75;27.90;;;5.40;97.00;;;;;;5062693;28;20027;-64
2021/12/08 12:51:06;;;;;;;172.25;31.73;;;5.50;97.10;;;;;;5074224;28;20357;-63
2021/12/08 12:53:45;;;;;;;113.55;28.50;;;5.50;97.00;;;;;;5064611;28;20024;-64
2021/12/08 12:56:29;;;;;;;123.65;28.60;;;5.50;96.90;;;;;;5072064;28;20016;-64
2021/12/08 12:58:57;;;;;;;56.17;23.95;;;5.50;97.00;;;;;;5073201;28;20024;-63
2021/12/08 13:01:33;;;;;;;120.22;27.83;;;5.50;97.10;;;;;;5074562;28;20020;-64
2021/12/08 13:04:05;;;;;;;135.63;24.55;;;5.50;97.20;;;;;;5074342;28;20383;-64
2021/12/08 13:07:03;;;;;;;92.75;27.00;;;5.50;97.40;;;;;;5074431;28;20043;-64
2021/12/08 13:09:53;;;;;;;110.07;25.42;;;5.50;97.10;;;;;;5040418;28;20036;-64
2021/12/08 13:12:38;;;;;;;147.85;28.17;;;5.50;97.30;;;;;;5072586;28;20043;-63
2021/12/08 13:15:07;;;;;;;65.30;23.70;;;5.50;97.30;;;;;;5072390;28;20028;-64
2021/12/08 13:17:33;;;;;;;113.93;27.98;;;5.50;97.30;;;;;;5073800;28;20059;-64
2021/12/08 13:20:03;;;;;;;98.45;25.90;;;5.60;97.40;;;;;;5073898;28;20136;-63
2021/12/08 13:22:44;;;;;;;70.22;24.20;;;5.60;97.40;;;;;;5073651;28;20370;-63
2021/12/08 13:25:40;;;;;;;172.18;32.42;;;5.60;97.40;;;;;;5073814;28;20021;-64
2021/12/08 13:28:13;;;;;;;98.57;29.13;;;5.60;97.20;;;;;;5074307;28;20036;-64
2021/12/08 13:30:58;;;;;;;62.92;26.90;;;5.60;97.30;;;;;;5074422;28;20032;-63
2021/12/08 13:33:29;;;;;;;158.98;30.10;;;5.60;97.60;;;;;;5054978;28;20037;-63
2021/12/08 13:35:57;;;;;;;94.47;26.15;;;5.60;97.50;;;;;;5052842;28;20025;-63
2021/12/08 13:38:25;;;;;;;150.55;30.60;;;5.60;97.60;;;;;;5053754;28;20361;-64
2021/12/08 13:40:57;;;;;;;106.35;27.52;;;5.60;97.40;;;;;;5053295;28;20082;-63
2021/12/08 13:43:40;;;;;;;97.97;26.10;;;5.60;97.50;;;;;;5053256;28;20021;-65
2021/12/08 13:46:09;;;;;;;106.65;27.92;;;5.60;97.50;;;;;;5053321;28;20021;-63
2021/12/08 13:48:37;;;;;;;105.20;27.77;;;5.60;97.40;;;;;;5063349;28;20817;-63